Manhattan, Indiana
Current Conditions -  °F | °C
As of 2:55 AM on Saturday 29 Nov 2014 (Local Time) from K4I7 Reporting Station
Clear Clear  
Wind Chill: -1°   Ceiling: Unl
Heat Index:   Visibility: 10mi
Dew Point: -3°   Wind: 9mph
Humidity: 65%   Direction: 190°S
Pressure: 29.95"   Gusts: NA
Location:  39.6767°N, 86.9214°W
Report Text: K4I7 290755Z AUTO 19008KT 161V221 10SM CLR 03/M03 A2995 RMK AO2
Loading
Personal Weather Stations






























Interactive Weather Map New forecast layout! Learn more

10-Day Weather Forecast

Advertisements
Track Severe Weather on mobile